Time;durP1;ratioP1;P1;durP2;ratioP2;P2;SDS_P1;SDS_P2;PMS_P1;PMS_P2;Temp;Humidity;BMP_temperature;BMP_pressure;BME280_temperature;BME280_humidity;BME280_pressure;Samples;Min_cycle;Max_cycle;Signal;HPM_P1;HPM_P2
2021/06/03 00:00:59;;;;;;;5.60;3.90;;;24.10;58.20;;;;;;6157948;23;20560;-83
2021/06/03 00:03:31;;;;;;;3.90;3.50;;;23.90;58.60;;;;;;6156955;23;20447;-83
2021/06/03 00:06:01;;;;;;;4.13;3.83;;;23.60;59.20;;;;;;6129970;23;20454;-83
2021/06/03 00:08:29;;;;;;;3.83;3.53;;;23.60;59.80;;;;;;6156696;23;20414;-84
2021/06/03 00:11:07;;;;;;;3.80;3.40;;;23.60;59.90;;;;;;6156573;23;20459;-83
2021/06/03 00:13:36;;;;;;;3.70;3.40;;;23.40;61.00;;;;;;6130548;23;20413;-84
2021/06/03 00:16:09;;;;;;;3.63;3.30;;;23.20;60.90;;;;;;6157654;23;20426;-83
2021/06/03 00:18:37;;;;;;;3.40;3.10;;;23.30;61.60;;;;;;6158432;23;20402;-83
2021/06/03 00:21:04;;;;;;;3.90;3.60;;;23.40;61.50;;;;;;6157929;23;20942;-84
2021/06/03 00:23:31;;;;;;;3.90;3.60;;;23.50;61.50;;;;;;6131671;23;20438;-85
2021/06/03 00:25:58;;;;;;;4.53;3.80;;;23.40;61.70;;;;;;6156830;23;20447;-84
2021/06/03 00:28:25;;;;;;;6.20;4.20;;;23.30;62.90;;;;;;6129407;23;20422;-82
2021/06/03 00:30:52;;;;;;;4.20;3.90;;;23.10;63.80;;;;;;6131113;23;20529;-84
2021/06/03 00:33:19;;;;;;;4.77;3.90;;;22.90;64.50;;;;;;6132272;23;20438;-84
2021/06/03 00:35:46;;;;;;;4.23;3.93;;;22.80;65.80;;;;;;6133399;23;20395;-83
2021/06/03 00:38:13;;;;;;;4.20;3.90;;;22.80;66.70;;;;;;6132615;23;20469;-83
2021/06/03 00:40:40;;;;;;;3.87;3.53;;;22.80;67.00;;;;;;6158855;23;20430;-83
2021/06/03 00:43:07;;;;;;;4.03;3.73;;;22.70;67.90;;;;;;6133461;23;20429;-84
2021/06/03 00:45:37;;;;;;;3.67;3.37;;;22.70;68.20;;;;;;6133790;23;20451;-84
2021/06/03 00:48:05;;;;;;;4.73;3.70;;;22.90;68.30;;;;;;6158898;23;20413;-83
2021/06/03 00:50:43;;;;;;;4.43;4.03;;;23.00;67.70;;;;;;6132815;23;20417;-84
2021/06/03 00:53:12;;;;;;;4.20;3.90;;;22.90;68.30;;;;;;6160116;23;20402;-83
2021/06/03 00:55:42;;;;;;;4.67;4.13;;;22.80;68.80;;;;;;6134911;23;20511;-83
2021/06/03 00:58:08;;;;;;;4.23;3.87;;;22.90;69.00;;;;;;6138278;23;20417;-84
2021/06/03 01:00:35;;;;;;;4.93;3.50;;;22.90;69.50;;;;;;6163598;23;20448;-83
2021/06/03 01:03:04;;;;;;;4.50;4.10;;;22.80;69.70;;;;;;6162663;23;20890;-84
2021/06/03 01:05:38;;;;;;;8.20;4.00;;;22.80;70.40;;;;;;6163181;23;20421;-83
2021/06/03 01:08:09;;;;;;;5.10;4.60;;;22.80;70.80;;;;;;6162850;23;20524;-82
2021/06/03 01:10:53;;;;;;;4.70;4.10;;;22.80;71.20;;;;;;6141857;23;20431;-83
2021/06/03 01:13:33;;;;;;;6.53;4.20;;;23.10;71.20;;;;;;6148550;23;20471;-82
2021/06/03 01:16:03;;;;;;;5.20;4.80;;;23.30;70.20;;;;;;6146763;23;20415;-83
2021/06/03 01:18:33;;;;;;;5.10;4.60;;;23.20;76.40;;;;;;6166549;23;20471;-83
2021/06/03 01:21:04;;;;;;;5.00;4.70;;;23.00;75.90;;;;;;6138495;23;20441;-81
2021/06/03 01:23:44;;;;;;;4.93;4.53;;;22.70;76.80;;;;;;6170842;23;20468;-83
2021/06/03 01:26:13;;;;;;;4.63;4.20;;;22.60;77.40;;;;;;6176469;23;20542;-83
2021/06/03 01:28:40;;;;;;;4.20;3.83;;;22.70;75.90;;;;;;6176848;23;20394;-82
2021/06/03 01:31:07;;;;;;;4.17;3.87;;;22.70;76.40;;;;;;6176060;23;20411;-83
2021/06/03 01:33:38;;;;;;;7.20;4.60;;;22.70;77.10;;;;;;6150984;23;20406;-84
2021/06/03 01:36:06;;;;;;;5.93;4.57;;;22.70;76.40;;;;;;6151255;23;20479;-83
2021/06/03 01:38:36;;;;;;;4.70;4.30;;;22.50;75.10;;;;;;6177400;23;20413;-84
2021/06/03 01:41:05;;;;;;;4.70;4.27;;;22.40;76.50;;;;;;6177646;23;20479;-84
2021/06/03 01:43:35;;;;;;;5.53;4.70;;;22.20;78.10;;;;;;6177583;23;20399;-83
2021/06/03 01:46:02;;;;;;;5.43;4.63;;;22.20;80.00;;;;;;6177193;23;20505;-83
2021/06/03 01:48:30;;;;;;;5.40;4.90;;;21.90;80.00;;;;;;6151076;23;20407;-84
2021/06/03 01:50:58;;;;;;;5.23;4.50;;;21.80;81.40;;;;;;6164287;23;20427;-83
2021/06/03 01:53:28;;;;;;;4.53;4.23;;;21.60;82.10;;;;;;6157158;23;20418;-83
2021/06/03 01:55:59;;;;;;;6.73;4.80;;;21.60;82.60;;;;;;6157444;23;20407;-83
2021/06/03 01:58:27;;;;;;;5.40;4.90;;;21.60;82.70;;;;;;6158153;23;20909;-83
2021/06/03 02:00:54;;;;;;;5.53;4.97;;;21.50;82.50;;;;;;6157413;23;20431;-82
2021/06/03 02:03:22;;;;;;;5.67;4.20;;;21.50;83.10;;;;;;6160162;23;20477;-82
2021/06/03 02:05:51;;;;;;;5.73;4.67;;;21.40;83.90;;;;;;6141012;23;20414;-84
2021/06/03 02:08:18;;;;;;;4.70;4.20;;;21.30;83.90;;;;;;6144936;23;20438;-81
2021/06/03 02:10:47;;;;;;;4.10;3.80;;;21.10;84.60;;;;;;6170628;23;20886;-85
2021/06/03 02:13:13;;;;;;;4.50;4.10;;;21.10;85.50;;;;;;6145611;23;20435;-84
2021/06/03 02:15:51;;;;;;;4.90;4.10;;;21.10;86.10;;;;;;6146379;23;20387;-82
2021/06/03 02:18:20;;;;;;;4.17;3.87;;;21.10;86.20;;;;;;6173417;23;20434;-85
2021/06/03 02:20:49;;;;;;;4.50;3.90;;;21.10;86.00;;;;;;6169841;23;20443;-81
2021/06/03 02:23:17;;;;;;;3.80;3.07;;;21.10;85.90;;;;;;6149094;23;20454;-82
2021/06/03 02:25:45;;;;;;;3.33;3.03;;;21.10;86.00;;;;;;6168524;23;20399;-84
2021/06/03 02:28:15;;;;;;;3.60;3.30;;;21.00;86.00;;;;;;6137526;23;20552;-83
2021/06/03 02:30:43;;;;;;;3.50;3.20;;;21.00;86.80;;;;;;6141537;23;20406;-84
2021/06/03 02:33:10;;;;;;;3.13;2.73;;;21.20;85.80;;;;;;6148655;23;20421;-84
2021/06/03 02:35:36;;;;;;;3.23;2.93;;;21.30;84.40;;;;;;6175944;23;20398;-84
2021/06/03 02:38:03;;;;;;;3.87;2.73;;;21.20;84.20;;;;;;6174569;23;20425;-84
2021/06/03 02:40:31;;;;;;;4.73;2.70;;;21.20;84.10;;;;;;6148322;23;20379;-83
2021/06/03 02:42:58;;;;;;;4.27;3.20;;;21.30;84.40;;;;;;6174448;23;20450;-83
2021/06/03 02:45:31;;;;;;;3.40;3.20;;;21.30;84.20;;;;;;6160185;23;20418;-83
2021/06/03 02:47:59;;;;;;;4.43;3.60;;;21.10;84.90;;;;;;6158671;23;20466;-81
2021/06/03 02:50:27;;;;;;;2.80;2.60;;;21.10;85.80;;;;;;6132540;23;20410;-83
2021/06/03 02:52:56;;;;;;;3.47;3.17;;;20.90;86.10;;;;;;6165360;23;20498;-83
2021/06/03 02:55:24;;;;;;;3.20;3.00;;;20.90;86.50;;;;;;6158296;23;20437;-83
2021/06/03 02:57:52;;;;;;;4.83;3.00;;;20.80;87.20;;;;;;6137785;23;20415;-81
2021/06/03 03:00:22;;;;;;;4.20;3.00;;;20.80;87.50;;;;;;6139032;23;20466;-82
2021/06/03 03:02:49;;;;;;;3.60;3.30;;;20.80;87.40;;;;;;6164222;23;20417;-82
2021/06/03 03:05:16;;;;;;;2.90;2.70;;;20.80;87.40;;;;;;6164793;23;20835;-83
2021/06/03 03:07:43;;;;;;;3.23;2.93;;;20.90;87.00;;;;;;6162821;23;20525;-82
2021/06/03 03:10:13;;;;;;;3.23;3.03;;;20.70;87.60;;;;;;6160964;23;20407;-83
2021/06/03 03:12:40;;;;;;;2.90;2.70;;;20.80;88.20;;;;;;6160257;23;20423;-84
2021/06/03 03:15:08;;;;;;;3.53;3.23;;;21.10;87.00;;;;;;6163272;23;20399;-81
2021/06/03 03:17:35;;;;;;;3.53;3.20;;;21.10;86.60;;;;;;6132782;23;20825;-83
2021/06/03 03:20:04;;;;;;;3.07;2.87;;;21.00;87.70;;;;;;6135894;23;20493;-84
2021/06/03 03:22:48;;;;;;;3.33;3.03;;;20.90;87.80;;;;;;6139901;23;20410;-83
2021/06/03 03:25:16;;;;;;;3.60;3.20;;;20.80;88.90;;;;;;6162089;23;20424;-84
2021/06/03 03:27:46;;;;;;;3.27;2.97;;;20.80;88.70;;;;;;6161077;23;20580;-83
2021/06/03 03:30:14;;;;;;;3.10;2.90;;;20.80;88.80;;;;;;6160259;23;20403;-84
2021/06/03 03:32:41;;;;;;;4.80;3.63;;;20.70;89.20;;;;;;6136411;23;21032;-83
2021/06/03 03:35:09;;;;;;;3.10;2.90;;;20.60;90.00;;;;;;6135205;23;20489;-83
2021/06/03 03:37:40;;;;;;;3.30;3.10;;;20.60;90.20;;;;;;6159314;23;20402;-83
2021/06/03 03:40:09;;;;;;;3.47;3.17;;;20.60;90.00;;;;;;6133788;23;20410;-83
2021/06/03 03:42:36;;;;;;;3.23;3.03;;;20.60;90.20;;;;;;6160100;23;20429;-83
2021/06/03 03:45:06;;;;;;;3.80;3.57;;;20.60;90.20;;;;;;6159784;23;20411;-82
2021/06/03 03:47:33;;;;;;;3.70;3.40;;;20.60;90.20;;;;;;6159211;23;20510;-83
2021/06/03 03:49:59;;;;;;;3.40;3.10;;;20.40;90.40;;;;;;6158403;23;20411;-83
2021/06/03 03:52:26;;;;;;;3.10;2.90;;;20.50;90.60;;;;;;6134245;23;20499;-84
2021/06/03 03:54:53;;;;;;;3.70;3.40;;;20.50;90.60;;;;;;6159557;23;20406;-84
2021/06/03 03:57:21;;;;;;;3.60;3.30;;;20.50;90.70;;;;;;6168304;23;20510;-83
2021/06/03 03:59:48;;;;;;;4.30;3.10;;;20.30;90.90;;;;;;6167843;23;20427;-84
2021/06/03 04:02:15;;;;;;;3.20;3.00;;;20.20;91.30;;;;;;6168596;23;20457;-84
2021/06/03 04:04:41;;;;;;;3.37;3.17;;;20.30;91.50;;;;;;6145071;23;20403;-84
2021/06/03 04:07:08;;;;;;;4.93;2.80;;;20.50;91.30;;;;;;6169833;23;20712;-82
2021/06/03 04:09:35;;;;;;;3.33;3.03;;;20.70;90.80;;;;;;6159829;23;20426;-84
2021/06/03 04:12:01;;;;;;;3.40;3.03;;;20.60;90.80;;;;;;6134517;23;20782;-82
2021/06/03 04:14:28;;;;;;;3.10;2.90;;;20.60;91.00;;;;;;6159357;23;20485;-82
2021/06/03 04:16:55;;;;;;;3.20;2.90;;;20.60;90.80;;;;;;6159938;23;20421;-83
2021/06/03 04:19:22;;;;;;;4.53;3.07;;;20.70;90.70;;;;;;6133918;23;20414;-82
2021/06/03 04:21:50;;;;;;;3.27;3.07;;;20.80;90.60;;;;;;6160735;23;20442;-83
2021/06/03 04:24:17;;;;;;;3.73;3.40;;;20.80;90.40;;;;;;6158987;23;20410;-82
2021/06/03 04:26:44;;;;;;;3.60;3.30;;;20.80;90.50;;;;;;6133662;23;20483;-83
2021/06/03 04:29:11;;;;;;;3.50;3.20;;;20.60;91.00;;;;;;6159951;23;20490;-84
2021/06/03 04:31:38;;;;;;;3.33;3.10;;;20.60;91.10;;;;;;6131452;23;20438;-83
2021/06/03 04:34:04;;;;;;;3.53;3.23;;;20.50;91.30;;;;;;6156977;23;20441;-83
2021/06/03 04:36:31;;;;;;;5.03;3.47;;;20.50;91.50;;;;;;6130069;23;20423;-83
2021/06/03 04:38:58;;;;;;;3.60;3.30;;;20.50;91.40;;;;;;6130534;23;20438;-83
2021/06/03 04:41:25;;;;;;;3.73;3.20;;;20.60;91.40;;;;;;6155587;23;20457;-83
2021/06/03 04:43:52;;;;;;;5.53;3.47;;;20.60;91.50;;;;;;6157689;23;20417;-84
2021/06/03 04:46:18;;;;;;;3.80;3.50;;;20.60;91.60;;;;;;6157793;23;20422;-83
2021/06/03 04:48:45;;;;;;;3.80;3.20;;;20.70;91.50;;;;;;6157133;23;20447;-84
2021/06/03 04:51:12;;;;;;;3.60;3.30;;;20.70;91.50;;;;;;6158570;23;20422;-85
2021/06/03 04:53:39;;;;;;;2.83;2.63;;;20.90;91.10;;;;;;6132345;23;20417;-84
2021/06/03 04:56:06;;;;;;;4.03;3.33;;;20.90;91.10;;;;;;6163868;23;20410;-83
2021/06/03 04:58:32;;;;;;;3.43;3.10;;;20.80;91.00;;;;;;6141155;23;20415;-82
2021/06/03 05:01:02;;;;;;;3.23;2.87;;;20.90;91.20;;;;;;6141538;23;20434;-84
2021/06/03 05:03:29;;;;;;;3.60;3.30;;;20.80;91.40;;;;;;6141033;23;20450;-83
2021/06/03 05:05:56;;;;;;;3.53;2.93;;;20.90;91.40;;;;;;6162517;23;20407;-82
2021/06/03 05:08:22;;;;;;;4.40;3.17;;;20.80;91.40;;;;;;6146435;23;20438;-83
2021/06/03 05:10:49;;;;;;;4.50;3.40;;;20.80;91.60;;;;;;6172253;23;20434;-84
2021/06/03 05:13:16;;;;;;;3.43;3.13;;;21.10;91.60;;;;;;6167354;23;20439;-82
2021/06/03 05:15:43;;;;;;;3.20;3.00;;;21.30;91.00;;;;;;6136705;23;20431;-84
2021/06/03 05:18:10;;;;;;;3.60;3.30;;;21.40;90.80;;;;;;6162017;23;20419;-83
2021/06/03 05:20:37;;;;;;;6.00;3.10;;;21.30;90.90;;;;;;6164374;23;20439;-84
2021/06/03 05:23:04;;;;;;;3.30;3.00;;;21.30;91.00;;;;;;6147851;23;20450;-82
2021/06/03 05:25:32;;;;;;;3.13;2.93;;;21.20;91.30;;;;;;6173173;23;20402;-83
2021/06/03 05:27:59;;;;;;;3.90;3.13;;;21.10;91.60;;;;;;6173174;23;20513;-81
2021/06/03 05:30:26;;;;;;;4.33;3.00;;;21.10;91.80;;;;;;6147137;23;20419;-83
2021/06/03 05:32:53;;;;;;;6.70;3.43;;;21.10;91.90;;;;;;6161623;23;20422;-83
2021/06/03 05:35:22;;;;;;;2.97;2.77;;;21.20;92.10;;;;;;6159300;23;20392;-83
2021/06/03 05:37:50;;;;;;;3.10;2.90;;;21.10;92.00;;;;;;6159733;23;20461;-83
2021/06/03 05:40:21;;;;;;;3.87;3.43;;;21.30;92.00;;;;;;6158275;23;20489;-83
2021/06/03 05:42:52;;;;;;;3.67;3.40;;;21.20;92.20;;;;;;6131874;23;20411;-85
2021/06/03 05:45:20;;;;;;;3.23;3.03;;;21.30;92.20;;;;;;6130632;23;20422;-84
2021/06/03 05:47:47;;;;;;;4.17;3.07;;;21.30;92.20;;;;;;6156799;23;20427;-83
2021/06/03 05:50:16;;;;;;;5.40;3.63;;;21.30;92.20;;;;;;6157525;23;20417;-83
2021/06/03 05:52:43;;;;;;;3.60;3.30;;;21.30;92.40;;;;;;6156677;23;20780;-85
2021/06/03 05:55:12;;;;;;;3.00;2.80;;;21.30;92.50;;;;;;6129780;23;20504;-83
2021/06/03 05:57:40;;;;;;;3.07;2.80;;;21.30;92.50;;;;;;6130324;23;21330;-83
2021/06/03 06:00:20;;;;;;;3.27;3.07;;;21.40;92.30;;;;;;6132103;23;20411;-83
2021/06/03 06:02:52;;;;;;;3.23;3.00;;;21.50;92.20;;;;;;6130797;23;20521;-84
2021/06/03 06:08:06;;;;;;;3.07;2.83;;;21.50;92.20;;;;;;6158250;23;20422;-83
2021/06/03 06:10:34;;;;;;;3.13;2.80;;;21.50;92.40;;;;;;6157609;23;20821;-84
2021/06/03 06:13:02;;;;;;;3.17;2.97;;;21.40;92.50;;;;;;6158817;23;20407;-85
2021/06/03 06:15:30;;;;;;;3.63;3.07;;;21.50;92.50;;;;;;6156277;23;20403;-83
2021/06/03 06:17:58;;;;;;;3.47;3.27;;;21.40;92.60;;;;;;6157576;23;20411;-83
2021/06/03 06:20:26;;;;;;;3.67;3.37;;;21.50;92.80;;;;;;6156875;23;20626;-84
2021/06/03 06:22:54;;;;;;;3.17;2.43;;;22.00;92.00;;;;;;6157673;23;20467;-83
2021/06/03 06:25:21;;;;;;;3.33;2.60;;;22.00;91.60;;;;;;6157536;23;20403;-83
2021/06/03 06:27:48;;;;;;;3.30;3.10;;;21.90;91.70;;;;;;6157201;23;20434;-83
2021/06/03 06:30:15;;;;;;;3.37;3.07;;;21.90;92.00;;;;;;6155971;23;20729;-84
2021/06/03 06:32:42;;;;;;;4.50;2.93;;;22.30;91.20;;;;;;6161652;23;20430;-83
2021/06/03 06:35:11;;;;;;;3.73;2.90;;;22.40;90.90;;;;;;6160789;23;20426;-84
2021/06/03 06:37:39;;;;;;;3.03;2.83;;;22.70;90.60;;;;;;6134750;23;20422;-83
2021/06/03 06:40:07;;;;;;;3.07;2.87;;;22.80;90.20;;;;;;6134545;23;20403;-84
2021/06/03 06:42:35;;;;;;;2.90;2.70;;;22.90;89.80;;;;;;6165492;23;20481;-83
2021/06/03 06:45:05;;;;;;;3.63;3.33;;;22.90;89.90;;;;;;6141733;23;20411;-85
2021/06/03 06:47:33;;;;;;;3.17;2.90;;;23.00;90.10;;;;;;6163647;23;20414;-84
2021/06/03 06:50:00;;;;;;;3.10;2.83;;;23.00;90.80;;;;;;6163453;23;20403;-84
2021/06/03 06:52:27;;;;;;;3.90;3.50;;;23.00;91.60;;;;;;6138767;23;20423;-85
2021/06/03 06:54:54;;;;;;;5.77;2.90;;;22.80;91.30;;;;;;6135189;23;20438;-83
2021/06/03 06:57:22;;;;;;;3.77;2.77;;;22.60;91.60;;;;;;6164725;23;20398;-84
2021/06/03 06:59:49;;;;;;;3.30;3.10;;;22.40;91.80;;;;;;6162829;23;20409;-84
2021/06/03 07:02:16;;;;;;;3.57;3.03;;;22.30;92.20;;;;;;6163124;23;20494;-82
2021/06/03 07:04:43;;;;;;;3.93;3.53;;;22.30;92.60;;;;;;6132700;23;20414;-83
2021/06/03 07:07:10;;;;;;;3.70;3.27;;;22.10;93.80;;;;;;6158844;23;20410;-84
2021/06/03 07:09:37;;;;;;;3.43;3.13;;;22.20;94.00;;;;;;6134590;23;20481;-84
2021/06/03 07:12:04;;;;;;;3.60;3.20;;;22.30;94.10;;;;;;6162385;23;20430;-81
2021/06/03 07:14:31;;;;;;;3.73;3.43;;;22.30;94.30;;;;;;6135344;23;20728;-83
2021/06/03 07:16:58;;;;;;;4.03;3.63;;;22.40;94.30;;;;;;6159428;23;20510;-84
2021/06/03 07:19:25;;;;;;;3.80;3.50;;;22.40;94.70;;;;;;6133923;23;20415;-84
2021/06/03 07:21:52;;;;;;;4.60;3.17;;;22.30;95.50;;;;;;6134847;23;20422;-82
2021/06/03 07:24:19;;;;;;;3.50;3.20;;;22.10;95.70;;;;;;6160790;23;20411;-84
2021/06/03 07:26:46;;;;;;;4.13;3.73;;;21.90;95.90;;;;;;6160919;23;20517;-84
2021/06/03 07:29:13;;;;;;;3.93;3.20;;;21.70;96.80;;;;;;6139732;23;20438;-84
2021/06/03 07:31:40;;;;;;;3.43;3.13;;;21.80;97.10;;;;;;6147644;23;20426;-82
2021/06/03 07:34:07;;;;;;;4.13;3.70;;;21.60;97.20;;;;;;6173995;23;20407;-82
2021/06/03 07:36:34;;;;;;;3.50;2.93;;;22.00;97.30;;;;;;6171796;23;20398;-85
2021/06/03 07:39:05;;;;;;;3.50;3.20;;;22.00;96.70;;;;;;6173030;23;20457;-85
2021/06/03 07:41:35;;;;;;;3.60;3.40;;;22.00;96.20;;;;;;6145200;23;20461;-84
2021/06/03 07:44:03;;;;;;;3.27;3.07;;;21.90;97.30;;;;;;6138816;23;20467;-84
2021/06/03 07:46:31;;;;;;;3.80;3.40;;;22.30;96.80;;;;;;6162863;23;20406;-84
2021/06/03 07:48:58;;;;;;;3.60;3.10;;;22.30;96.10;;;;;;6163423;23;20485;-81
2021/06/03 07:51:25;;;;;;;3.77;3.13;;;22.30;96.40;;;;;;6165652;23;20496;-82
2021/06/03 07:53:53;;;;;;;4.50;3.57;;;22.30;96.80;;;;;;6165660;23;20407;-82
2021/06/03 07:56:20;;;;;;;3.80;3.50;;;22.50;96.70;;;;;;6138518;23;20420;-83
2021/06/03 07:58:47;;;;;;;4.47;3.70;;;22.50;96.80;;;;;;6140757;23;20407;-83
2021/06/03 08:01:15;;;;;;;4.03;3.63;;;22.60;97.10;;;;;;6133012;23;20431;-82
2021/06/03 08:03:41;;;;;;;3.40;3.10;;;22.50;96.90;;;;;;6158030;23;20419;-84
2021/06/03 08:06:09;;;;;;;4.00;3.70;;;22.50;97.10;;;;;;6159746;23;20409;-83
2021/06/03 08:08:37;;;;;;;4.67;4.27;;;22.30;98.20;;;;;;6133398;23;20439;-84
2021/06/03 08:11:05;;;;;;;4.33;3.97;;;22.20;99.10;;;;;;6160669;23;20441;-83
2021/06/03 08:13:32;;;;;;;4.43;3.80;;;22.20;99.90;;;;;;6160492;23;20406;-82
2021/06/03 08:15:59;;;;;;;3.80;3.50;;;22.30;99.90;;;;;;6158807;23;20458;-83
2021/06/03 08:18:25;;;;;;;4.53;4.13;;;22.20;99.90;;;;;;6157257;23;20424;-83
2021/06/03 08:20:57;;;;;;;3.70;3.50;;;22.20;99.90;;;;;;6154681;23;20458;-83
2021/06/03 08:23:26;;;;;;;4.47;4.10;;;22.10;99.90;;;;;;6158714;23;20394;-84
2021/06/03 08:25:56;;;;;;;5.13;4.63;;;22.00;99.90;;;;;;6159180;23;20442;-84
2021/06/03 08:28:26;;;;;;;4.83;4.43;;;22.20;99.90;;;;;;6158130;23;20469;-83
2021/06/03 08:30:55;;;;;;;4.90;4.50;;;22.30;99.90;;;;;;6159273;23;20433;-82
2021/06/03 08:33:24;;;;;;;4.10;3.77;;;22.30;99.90;;;;;;6130837;23;20407;-85
2021/06/03 08:35:50;;;;;;;4.87;4.47;;;22.30;99.90;;;;;;6157075;23;20482;-84
2021/06/03 08:38:17;;;;;;;5.37;4.00;;;22.40;99.90;;;;;;6156365;23;20741;-85
2021/06/03 08:40:52;;;;;;;5.40;4.67;;;22.40;99.90;;;;;;6131016;23;20427;-84
2021/06/03 08:43:22;;;;;;;6.60;5.10;;;22.20;99.90;;;;;;6132204;23;20740;-84
2021/06/03 08:45:50;;;;;;;4.87;4.40;;;22.20;99.90;;;;;;6131867;23;20446;-83
2021/06/03 08:48:17;;;;;;;5.33;4.83;;;22.30;99.90;;;;;;6131825;23;20446;-84
2021/06/03 08:50:50;;;;;;;5.30;4.90;;;22.20;99.90;;;;;;6156890;23;20422;-84
2021/06/03 08:53:17;;;;;;;5.43;4.93;;;22.20;99.90;;;;;;6139251;23;20457;-84
2021/06/03 08:58:31;;;;;;;5.10;4.50;;;22.30;99.90;;;;;;6157838;23;20395;-83
2021/06/03 09:01:00;;;;;;;4.90;4.50;;;22.30;99.90;;;;;;6135487;23;20435;-84
2021/06/03 09:03:29;;;;;;;4.77;4.27;;;22.30;99.90;;;;;;6167518;23;20441;-82
2021/06/03 09:05:56;;;;;;;6.50;5.67;;;22.30;99.90;;;;;;6147081;23;20485;-85
2021/06/03 09:08:26;;;;;;;5.70;5.03;;;22.40;99.90;;;;;;6145799;23;20419;-84
2021/06/03 09:10:55;;;;;;;6.00;5.17;;;22.40;99.90;;;;;;6137263;23;20446;-84
2021/06/03 09:13:31;;;;;;;5.53;5.03;;;22.30;99.90;;;;;;6137891;23;20414;-84
2021/06/03 09:16:08;;;;;;;6.87;6.20;;;22.80;99.90;;;;;;6138019;23;20818;-84
2021/06/03 09:18:39;;;;;;;6.80;6.20;;;22.80;99.90;;;;;;6145247;23;20434;-84
2021/06/03 09:21:15;;;;;;;7.57;6.87;;;22.90;99.90;;;;;;6146875;23;20438;-82
2021/06/03 09:23:58;;;;;;;9.63;8.73;;;22.60;99.90;;;;;;6147175;23;20823;-84
2021/06/03 09:26:29;;;;;;;13.10;9.57;;;22.50;99.90;;;;;;6170294;23;20410;-83
2021/06/03 09:28:58;;;;;;;10.00;9.10;;;22.40;99.90;;;;;;6160957;23;20473;-84
2021/06/03 09:31:29;;;;;;;7.77;7.10;;;22.30;99.90;;;;;;6159012;23;20430;-84
2021/06/03 09:34:07;;;;;;;9.07;8.07;;;22.30;99.90;;;;;;6160375;23;20497;-83
2021/06/03 09:36:43;;;;;;;11.40;7.30;;;22.30;99.90;;;;;;6160571;23;20427;-84
2021/06/03 09:39:19;;;;;;;7.90;7.20;;;22.30;99.90;;;;;;6135038;23;20417;-84
2021/06/03 09:41:47;;;;;;;7.77;7.07;;;22.20;99.90;;;;;;6134579;23;20439;-82
2021/06/03 09:44:33;;;;;;;7.57;6.97;;;22.10;99.90;;;;;;6135918;23;20415;-83
2021/06/03 09:47:22;;;;;;;6.20;5.47;;;22.00;99.90;;;;;;6140078;23;20387;-85
2021/06/03 09:49:55;;;;;;;7.07;5.90;;;22.40;99.90;;;;;;6162226;23;20446;-84
2021/06/03 09:52:30;;;;;;;7.37;6.77;;;22.50;99.90;;;;;;6161731;23;20438;-83
2021/06/03 09:55:07;;;;;;;7.90;7.20;;;22.60;99.90;;;;;;6166359;23;20414;-83
2021/06/03 09:57:36;;;;;;;8.47;7.77;;;22.60;99.90;;;;;;6172762;23;20451;-84
2021/06/03 10:00:17;;;;;;;7.10;6.50;;;22.40;99.90;;;;;;6173715;23;20491;-83
2021/06/03 10:02:45;;;;;;;7.43;6.73;;;22.30;99.90;;;;;;6146215;23;20434;-83
2021/06/03 10:05:16;;;;;;;8.07;7.37;;;22.50;99.90;;;;;;6167362;23;20490;-83
2021/06/03 10:08:19;;;;;;;8.87;8.07;;;22.70;99.90;;;;;;6163313;23;20399;-84
2021/06/03 10:12:17;;;;;;;;;;;;;;;;;;;;;
2021/06/03 10:15:49;;;;;;;8.47;7.67;;;22.60;99.90;;;;;;5970249;24;20417;-83
2021/06/03 10:19:06;;;;;;;8.40;7.67;;;22.50;99.90;;;;;;5876213;24;20386;-83
2021/06/03 10:22:19;;;;;;;7.30;6.60;;;22.50;99.90;;;;;;5805412;24;20534;-83
2021/06/03 10:25:02;;;;;;;7.63;6.87;;;22.40;99.90;;;;;;5792270;24;20430;-82
2021/06/03 10:27:35;;;;;;;8.37;7.27;;;22.20;99.90;;;;;;5792238;24;20502;-83
2021/06/03 10:30:13;;;;;;;6.27;5.77;;;22.40;99.90;;;;;;6012758;23;20450;-82
2021/06/03 10:32:40;;;;;;;8.97;5.20;;;22.40;99.90;;;;;;6042495;23;20422;-83
2021/06/03 10:35:13;;;;;;;5.13;4.73;;;22.30;99.90;;;;;;6024456;23;20406;-83
2021/06/03 10:37:42;;;;;;;6.20;5.20;;;22.20;99.90;;;;;;6045233;23;21397;-84
2021/06/03 10:40:13;;;;;;;6.43;5.70;;;21.90;99.90;;;;;;6043214;23;20410;-83
2021/06/03 10:42:42;;;;;;;5.33;4.90;;;22.10;99.90;;;;;;6016121;23;20493;-84
2021/06/03 10:45:11;;;;;;;5.60;4.07;;;22.20;99.90;;;;;;6016130;23;20406;-84
2021/06/03 10:47:39;;;;;;;4.57;4.17;;;22.40;99.90;;;;;;6037778;23;20510;-83
2021/06/03 10:50:09;;;;;;;3.63;3.23;;;22.40;99.90;;;;;;6036538;23;20446;-84
2021/06/03 10:52:36;;;;;;;4.13;3.50;;;22.40;99.90;;;;;;6039876;23;20430;-84
2021/06/03 10:55:06;;;;;;;3.90;3.13;;;22.20;99.90;;;;;;6014687;23;21073;-85
2021/06/03 10:57:44;;;;;;;4.37;3.40;;;22.40;99.90;;;;;;6038059;23;20440;-83
2021/06/03 11:00:25;;;;;;;3.77;3.47;;;22.50;99.90;;;;;;6151975;23;20414;-81
2021/06/03 11:02:56;;;;;;;4.93;4.30;;;22.40;99.90;;;;;;6152109;23;20410;-81
2021/06/03 11:05:27;;;;;;;5.07;4.37;;;22.60;99.90;;;;;;6150914;23;20398;-82
2021/06/03 11:07:54;;;;;;;5.27;4.80;;;22.70;99.90;;;;;;6126023;23;20401;-80
2021/06/03 11:10:26;;;;;;;7.00;5.00;;;22.70;99.90;;;;;;6122853;23;21228;-81
2021/06/03 11:13:14;;;;;;;7.37;4.83;;;22.80;99.90;;;;;;6125586;23;20417;-83
2021/06/03 11:16:06;;;;;;;5.77;4.90;;;22.90;99.90;;;;;;6124872;23;20414;-80
2021/06/03 11:18:45;;;;;;;5.63;4.87;;;22.80;99.90;;;;;;6155801;23;20415;-83
2021/06/03 11:21:35;;;;;;;4.97;4.43;;;22.70;99.90;;;;;;6156918;23;20540;-81
2021/06/03 11:24:35;;;;;;;5.33;4.93;;;22.60;99.90;;;;;;6142822;23;20704;-81
2021/06/03 11:27:33;;;;;;;5.37;4.87;;;22.50;99.90;;;;;;6150417;23;20445;-82
2021/06/03 11:30:02;;;;;;;5.80;5.23;;;22.80;99.90;;;;;;6149220;23;20434;-81
2021/06/03 11:32:35;;;;;;;5.40;4.70;;;22.70;99.90;;;;;;6128617;23;20419;-82
2021/06/03 11:35:06;;;;;;;5.70;4.90;;;22.80;99.90;;;;;;6150190;23;20454;-80
2021/06/03 11:37:36;;;;;;;4.80;4.37;;;22.50;99.90;;;;;;6148559;23;20413;-81
2021/06/03 11:40:05;;;;;;;4.27;3.90;;;22.40;99.90;;;;;;6149083;23;20444;-81
2021/06/03 11:42:47;;;;;;;3.93;3.63;;;22.70;99.90;;;;;;6151869;23;20423;-81
2021/06/03 11:45:24;;;;;;;4.70;4.40;;;22.80;99.90;;;;;;6154518;23;20482;-81
2021/06/03 11:47:56;;;;;;;5.50;4.17;;;23.10;99.90;;;;;;6129163;23;20391;-84
2021/06/03 11:50:23;;;;;;;3.27;3.07;;;23.10;99.90;;;;;;6153700;23;20427;-82
2021/06/03 11:52:59;;;;;;;5.40;3.27;;;23.10;99.90;;;;;;6153912;23;20429;-82
2021/06/03 11:55:37;;;;;;;3.70;3.40;;;23.20;99.90;;;;;;6152884;23;20735;-82
2021/06/03 11:58:12;;;;;;;4.00;3.70;;;23.50;99.90;;;;;;6153879;23;20441;-80
2021/06/03 12:00:45;;;;;;;4.10;3.50;;;23.80;99.90;;;;;;6157772;23;20417;-81
2021/06/03 12:03:38;;;;;;;4.60;3.83;;;23.40;99.90;;;;;;6139254;23;20410;-81
2021/06/03 12:06:10;;;;;;;4.30;4.00;;;23.00;99.90;;;;;;6140826;23;20407;-81
2021/06/03 12:08:50;;;;;;;4.77;4.30;;;23.30;99.90;;;;;;6165971;23;20406;-82
2021/06/03 12:11:19;;;;;;;4.43;4.13;;;23.20;99.90;;;;;;6164559;23;20423;-82
2021/06/03 12:13:59;;;;;;;5.23;4.37;;;23.80;99.90;;;;;;6163666;23;20426;-80
2021/06/03 12:16:38;;;;;;;4.90;4.40;;;24.00;99.90;;;;;;6139522;23;20392;-81
2021/06/03 12:19:30;;;;;;;4.87;4.20;;;24.20;99.90;;;;;;6166747;23;20442;-82
2021/06/03 12:22:00;;;;;;;5.47;4.33;;;24.50;99.90;;;;;;6158991;23;20430;-82
2021/06/03 12:24:45;;;;;;;4.30;3.90;;;24.50;99.90;;;;;;6163986;23;20430;-80
2021/06/03 12:27:28;;;;;;;5.57;4.13;;;25.00;99.90;;;;;;6164109;23;20417;-81
2021/06/03 12:30:08;;;;;;;4.83;4.13;;;25.70;99.90;;;;;;6161351;23;20442;-81
2021/06/03 12:32:34;;;;;;;4.77;3.93;;;26.30;97.60;;;;;;6166900;23;20678;-81
2021/06/03 12:35:02;;;;;;;4.13;3.83;;;26.40;97.00;;;;;;6165002;23;20422;-82
2021/06/03 12:37:33;;;;;;;4.17;3.77;;;26.60;96.30;;;;;;6136012;23;20411;-81
2021/06/03 12:40:06;;;;;;;4.10;3.80;;;27.00;95.10;;;;;;6138646;23;20699;-81
2021/06/03 12:42:33;;;;;;;3.20;3.00;;;27.40;94.30;;;;;;6142710;23;20419;-82
2021/06/03 12:45:08;;;;;;;3.53;3.23;;;27.60;92.90;;;;;;6140397;23;20426;-81
2021/06/03 12:47:37;;;;;;;3.20;3.00;;;27.90;91.40;;;;;;6166281;23;20454;-81
2021/06/03 12:50:15;;;;;;;3.57;3.30;;;27.40;91.80;;;;;;6141569;23;20454;-81
2021/06/03 12:52:46;;;;;;;3.83;3.50;;;27.70;91.40;;;;;;6166978;23;20465;-82
2021/06/03 12:55:18;;;;;;;3.70;3.30;;;27.70;90.80;;;;;;6166225;23;20395;-81
2021/06/03 12:57:45;;;;;;;4.17;3.80;;;27.80;90.70;;;;;;6165230;23;20490;-81
2021/06/03 13:00:18;;;;;;;4.13;3.83;;;27.30;92.40;;;;;;6167450;23;20470;-81
2021/06/03 13:02:48;;;;;;;3.73;3.50;;;27.60;91.00;;;;;;6167279;23;20435;-81
2021/06/03 13:05:18;;;;;;;4.60;4.20;;;27.40;91.30;;;;;;6138813;23;20395;-80
2021/06/03 13:07:45;;;;;;;4.10;3.80;;;27.30;91.60;;;;;;6141575;23;20433;-81
2021/06/03 13:10:19;;;;;;;4.60;4.20;;;27.00;92.40;;;;;;6134937;23;21361;-81
2021/06/03 13:12:56;;;;;;;4.27;3.87;;;26.90;93.50;;;;;;6159928;23;20465;-81